Ruby Princess — ZCDY2 — position and weather

sailwx.info

Track history (hours):
 
Tides and Currents Weather Stations Pressure Air Temp Water Temp Dewpoint Dewpoint Depression Visibility Wind Speed Wind Dir Waves Ship Positions

Ruby Princess

Last reported at 2017-Oct-17 14:00 UTC. Time now 2017-Oct-18 09:16 UTC.
Position N 20°36' W 105°30'.

Length 289 m; draft 8.6 m.

Type: Ship. MMSI: 310567000.

Wind from 040 at 12 knots

Barometer 1011.1 mb
Air temperature 28.5 ° C
Visibility: greater than 10.8 NM
Dewpoint 27.1 ° C
Water temperature 29.0 ° C

Date/timePositionNaut miles runAvg speedWind from/ knotsBaromVisibWave heightAir tempDewpointWater temp
2017-Oct-17 14:00N 20°36' W 105°30'7114.3 040 / 121011.110.8 28.527.129.0
2017-Oct-17 09:00N 21°00' W 106°42'8120.3 030 / 101011.110.8 28.527.129.0
2017-Oct-17 05:00N 21°36' W 108°00'6616.5 010 / 121012.710.8 29.026.930.0
2017-Oct-17 01:00N 22°00' W 109°06'14818.6 360 / 141012.210.8 29.027.629.0
2017-Oct-16 17:00N 23°06' W 111°30'6521.7 360 / 71014.510.8 27.525.427.0
2017-Oct-16 14:00N 23°54' W 112°18'13516.9 350 / 71013.210.8 25.023.525.0
2017-Oct-16 06:00N 25°42' W 113°48'6120.3 330 / 141014.610.8 24.021.823.0
2017-Oct-16 03:00N 26°30' W 114°30'7418.4 310 / 181014.110.8 22.019.720.0
2017-Oct-15 23:00N 27°30' W 115°18'11218.1 340 / 201017.610.8 21.518.320.0
2017-Oct-15 16:49N 29°10' W 116°16'617.4
2017-Oct-15 16:28N 29°15' W 116°18'3 5.8
2017-Oct-15 16:00N 29°18' W 116°18'961.4 020 / 101017.610.8 20.018.420.0
2017-Oct-15 15:51N 29°26' W 116°23'618.4
2017-Oct-15 15:30N 29°32' W 116°25'2818.7
2017-Oct-15 13:59N 29°59' W 116°37'919.1
2017-Oct-15 13:30N 30°07' W 116°40'1218.9
2017-Oct-15 12:53N 30°18' W 116°45'719.0
2017-Oct-15 12:30N 30°25' W 116°48'918.9
2017-Oct-15 12:00N 30°34' W 116°51'1619.0
2017-Oct-15 11:09N 30°49' W 116°58'318.9
2017-Oct-15 10:59N 30°52' W 116°59'918.7
2017-Oct-15 10:29N 31°01' W 117°03'1619.1
2017-Oct-15 09:39N 31°16' W 117°09'1519.3
2017-Oct-15 08:53N 31°30' W 117°15'719.3
2017-Oct-15 08:30N 31°37' W 117°18'1019.3
2017-Oct-15 08:01N 31°46' W 117°22'1019.3
2017-Oct-15 07:30N 31°55' W 117°26'918.8
2017-Oct-15 07:00N 32°04' W 117°30'918.5
2017-Oct-15 06:30N 32°12' W 117°33'918.1
2017-Oct-15 06:00N 32°21' W 117°37'11657.6
2017-Oct-15 06:00N 32°12' W 117°30'1939.1 030 / 51016.410.8 19.517.921.0
2017-Oct-15 05:31N 32°29' W 117°40'917.3
2017-Oct-15 05:01N 32°37' W 117°44'918.5
2017-Oct-15 04:30N 32°45' W 117°48'918.8
2017-Oct-15 04:00N 32°54' W 117°52'919.0
2017-Oct-15 03:31N 33°03' W 117°56'918.8
2017-Oct-15 03:00N 33°11' W 118°01'918.3
2017-Oct-15 02:31N 33°19' W 118°06'612.5
2017-Oct-15 02:01N 33°25' W 118°09'3164.0
2017-Oct-15 02:00N 33°24' W 118°06'817.5 310 / 151014.210.8 20.019.221.0
2017-Oct-15 01:30N 33°31' W 118°12'612.4
2017-Oct-15 01:00N 33°37' W 118°14'611.3
2017-Oct-15 00:31N 33°43' W 118°15'3 5.2
2017-Oct-15 00:01N 33°45' W 118°16'0 0.4
2017-Oct-14 23:30N 33°45' W 118°17'0 0.0
2017-Oct-14 23:00N 33°45' W 118°17'0 0.0
2017-Oct-14 22:29N 33°45' W 118°17'0 0.0
2017-Oct-14 21:59N 33°45' W 118°17'0 0.0
2017-Oct-14 21:29N 33°45' W 118°17'0 0.0
2017-Oct-14 20:59N 33°45' W 118°17'0 0.0
2017-Oct-14 20:28N 33°45' W 118°17'0 0.0
2017-Oct-14 19:58N 33°45' W 118°17'0 0.0
2017-Oct-14 19:28N 33°45' W 118°17'0 0.0
2017-Oct-14 18:58N 33°45' W 118°17'0 0.0
2017-Oct-14 18:28N 33°45' W 118°17'0 0.0
2017-Oct-14 17:57N 33°45' W 118°17'0 0.0
2017-Oct-14 17:30N 33°45' W 118°17'0 0.0
2017-Oct-14 17:00N 33°45' W 118°17'0 0.0
2017-Oct-14 16:30N 33°45' W 118°17'0 0.0
2017-Oct-14 15:57N 33°45' W 118°17'0 0.0
2017-Oct-14 15:30N 33°45' W 118°17'0 0.0
2017-Oct-14 14:54N 33°45' W 118°17'0 0.0
2017-Oct-14 14:27N 33°45' W 118°17'0 0.0
2017-Oct-14 14:00N 33°45' W 118°17'0 0.0
2017-Oct-14 13:29N 33°45' W 118°17'0 0.2
2017-Oct-14 13:00N 33°45' W 118°17'2 3.5
2017-Oct-14 12:30N 33°43' W 118°16'4 8.8
2017-Oct-14 12:00N 33°40' W 118°12'4 8.7
2017-Oct-14 11:30N 33°36' W 118°10'612.2
2017-Oct-14 11:00N 33°31' W 118°07'612.0
2017-Oct-14 10:30N 33°25' W 118°05'612.0
2017-Oct-14 10:00N 33°19' W 118°03'612.1
2017-Oct-14 09:30N 33°14' W 117°60'612.0
2017-Oct-14 09:00N 33°08' W 117°58'611.8
2017-Oct-14 08:30N 33°02' W 117°55'611.7
2017-Oct-14 08:00N 32°57' W 117°53'611.8
2017-Oct-14 07:30N 32°51' W 117°51'612.0
2017-Oct-14 07:00N 32°46' W 117°48'612.9
2017-Oct-14 06:30N 32°40' W 117°45'713.4
2017-Oct-14 06:00N 32°33' W 117°42'713.6
2017-Oct-14 05:30N 32°27' W 117°38'612.3
2017-Oct-14 05:00N 32°22' W 117°35'611.9
2017-Oct-14 04:30N 32°17' W 117°31'612.9
2017-Oct-14 04:00N 32°13' W 117°26'713.3
2017-Oct-14 03:30N 32°08' W 117°20'2214.4
2017-Oct-14 02:00N 31°54' W 117°00'19 1.2 290 / 101013.410.8 19.016.520.5
2017-Oct-13 09:48N 32°07' W 117°16'413.0
2017-Oct-13 09:30N 32°11' W 117°18'713.3
2017-Oct-13 09:00N 32°17' W 117°21'713.6
2017-Oct-13 08:30N 32°24' W 117°23'612.4
2017-Oct-13 08:00N 32°30' W 117°23'713.5
2017-Oct-13 07:30N 32°34' W 117°17'611.8
2017-Oct-13 07:00N 32°39' W 117°14'4 7.7
2017-Oct-13 06:30N 32°43' W 117°12'1 2.6
2017-Oct-13 06:00N 32°43' W 117°10'0 0.0
2017-Oct-13 05:27N 32°43' W 117°10'0 0.0
2017-Oct-13 04:59N 32°43' W 117°10'0 0.0
2017-Oct-13 04:29N 32°43' W 117°10'0 0.0
2017-Oct-13 03:56N 32°43' W 117°10'0 0.0
2017-Oct-13 03:26N 32°43' W 117°10'0 0.0
2017-Oct-13 02:58N 32°43' W 117°10'0 0.0
2017-Oct-13 02:16N 32°43' W 117°10'0 0.0
2017-Oct-13 01:52N 32°43' W 117°10'0 0.0
2017-Oct-13 01:13N 32°43' W 117°10'0 0.0
2017-Oct-13 00:58N 32°43' W 117°10'0 0.0
2017-Oct-13 00:21N 32°43' W 117°10'0 0.0
2017-Oct-12 23:57N 32°43' W 117°10'0 0.0
2017-Oct-12 23:21N 32°43' W 117°10'0 0.0
2017-Oct-12 22:57N 32°43' W 117°10'0 0.0
2017-Oct-12 22:27N 32°43' W 117°10'0 0.0
2017-Oct-12 21:56N 32°43' W 117°10'0 0.0
2017-Oct-12 21:20N 32°43' W 117°10'0 0.0
2017-Oct-12 20:59N 32°43' W 117°10'0 0.0
2017-Oct-12 20:20N 32°43' W 117°10'0 0.0
2017-Oct-12 19:58N 32°43' W 117°10'0 0.0
2017-Oct-12 19:28N 32°43' W 117°10'0 0.0
2017-Oct-12 18:46N 32°43' W 117°10'0 0.0
2017-Oct-12 18:19N 32°43' W 117°10'0 0.0
2017-Oct-12 17:54N 32°43' W 117°10'0 0.0
2017-Oct-12 17:30N 32°43' W 117°10'0 0.0
2017-Oct-12 17:00N 32°43' W 117°10'0 0.0
2017-Oct-12 16:30N 32°43' W 117°10'0 0.0
2017-Oct-12 16:00N 32°43' W 117°10'0 0.0
2017-Oct-12 15:29N 32°43' W 117°10'0 0.0
2017-Oct-12 14:47N 32°43' W 117°10'0 0.9
2017-Oct-12 14:30N 32°43' W 117°11'3 6.4
2017-Oct-12 14:00N 32°41' W 117°14'5 9.2
2017-Oct-12 13:30N 32°37' W 117°15'5 9.7
2017-Oct-12 13:00N 32°36' W 117°20'510.2
2017-Oct-12 12:30N 32°36' W 117°26'611.7
2017-Oct-12 12:00N 32°36' W 117°33'612.5
2017-Oct-12 11:30N 32°36' W 117°41'612.4
2017-Oct-12 11:00N 32°36' W 117°48'612.1
2017-Oct-12 10:30N 32°36' W 117°55'611.0
2017-Oct-12 10:00N 32°36' W 118°02'612.7
2017-Oct-12 09:30N 32°36' W 118°09'612.8
2017-Oct-12 09:00N 32°36' W 118°17'612.5
2017-Oct-12 08:30N 32°35' W 118°24'713.1
2017-Oct-12 08:00N 32°35' W 118°32'612.7
2017-Oct-12 07:30N 32°38' W 118°39'611.8
2017-Oct-12 07:00N 32°40' W 118°45'611.6
2017-Oct-12 06:30N 32°43' W 118°52'611.8
2017-Oct-12 06:00N 32°45' W 118°58'611.9
2017-Oct-12 05:30N 32°47' W 119°05'612.1
2017-Oct-12 05:00N 32°49' W 119°12'611.9
2017-Oct-12 04:29N 32°50' W 119°19'611.9
2017-Oct-12 04:00N 32°52' W 119°25'611.6
2017-Oct-12 03:30N 32°56' W 119°30'611.7
2017-Oct-12 03:00N 32°59' W 119°36'5500.2
2017-Oct-12 03:00N 33°00' W 119°42'2 3.8 270 / 101012.210.8 15.511.817.0
2017-Oct-12 02:29N 33°02' W 119°43'612.0
2017-Oct-12 01:57N 33°05' W 119°49'612.0
2017-Oct-12 01:30N 33°08' W 119°55'611.9
2017-Oct-12 01:00N 33°11' W 120°01'612.2
2017-Oct-12 00:30N 33°15' W 120°06'612.2
2017-Oct-12 00:00N 33°18' W 120°12'612.1
2017-Oct-11 23:30N 33°22' W 120°19'713.7
2017-Oct-11 22:58N 33°26' W 120°26'511.5
2017-Oct-11 22:30N 33°29' W 120°31'612.6
2017-Oct-11 22:00N 33°33' W 120°37'143625.9
2017-Oct-11 22:00N 33°24' W 120°24'2040.8 270 / 201013.010.8 16.512.016.0
2017-Oct-11 21:30N 33°36' W 120°43'3 6.8
2017-Oct-11 21:00N 33°39' W 120°42'4 8.0
2017-Oct-11 20:30N 33°42' W 120°38'4 7.9
2017-Oct-11 20:00N 33°44' W 120°34'4 7.4
2017-Oct-11 19:30N 33°48' W 120°35'510.7
2017-Oct-11 19:00N 33°52' W 120°40'510.6
2017-Oct-11 18:30N 33°56' W 120°44'510.5
2017-Oct-11 18:00N 34°00' W 120°47'510.5
2017-Oct-11 17:30N 34°05' W 120°50'510.3
2017-Oct-11 17:00N 34°10' W 120°53'70 9.9
2017-Oct-11 10:00N 35°12' W 121°30'87 8.6 310 / 101012.1 5.4 13.011.113.0
2017-Oct-10 23:51N 36°37' W 121°53'0 0.1
2017-Oct-10 23:27N 36°37' W 121°53'0 0.0
2017-Oct-10 23:00N 36°37' W 121°53'0 0.0
2017-Oct-10 22:27N 36°37' W 121°53'0 0.1
2017-Oct-10 21:57N 36°37' W 121°53'0 0.0
2017-Oct-10 21:26N 36°37' W 121°53'0 0.1
2017-Oct-10 20:56N 36°37' W 121°53'0 0.1
2017-Oct-10 20:26N 36°37' W 121°53'0 0.0
2017-Oct-10 19:59N 36°37' W 121°53'0 0.0
2017-Oct-10 19:25N 36°37' W 121°53'0 0.1
2017-Oct-10 18:55N 36°37' W 121°53'0 0.0
2017-Oct-10 18:28N 36°37' W 121°53'0 0.0
2017-Oct-10 17:55N 36°37' W 121°53'0 0.0
2017-Oct-10 17:19N 36°37' W 121°53'0 0.0
2017-Oct-10 16:57N 36°37' W 121°53'0 0.1
2017-Oct-10 16:30N 36°37' W 121°53'0 0.1
2017-Oct-10 15:57N 36°37' W 121°53'0 0.0
2017-Oct-10 15:30N 36°37' W 121°53'0 0.1
2017-Oct-10 14:57N 36°37' W 121°53'0 0.1
2017-Oct-10 14:00N 36°37' W 121°53'0 0.9
2017-Oct-10 13:30N 36°37' W 121°53'4 8.2
2017-Oct-10 12:59N 36°41' W 121°57'713.2
2017-Oct-10 12:29N 36°45' W 122°03'1815.7
2017-Oct-10 11:19N 36°58' W 122°19'515.6
2017-Oct-10 11:00N 37°01' W 122°23'815.9
2017-Oct-10 10:30N 37°07' W 122°30'815.7
2017-Oct-10 10:00N 37°13' W 122°37'815.0
2017-Oct-10 09:30N 37°18' W 122°43'510.2
2017-Oct-10 09:00N 37°23' W 122°44'510.3
2017-Oct-10 08:30N 37°28' W 122°44'510.2
2017-Oct-10 08:00N 37°34' W 122°44'510.7
2017-Oct-10 07:30N 37°39' W 122°44'714.4
2017-Oct-10 07:00N 37°45' W 122°39'816.1
2017-Oct-10 06:30N 37°49' W 122°30'510.0
2017-Oct-10 06:00N 37°48' W 122°24'0 0.0
2017-Oct-10 05:30N 37°48' W 122°24'0 0.0
2017-Oct-10 05:00N 37°48' W 122°24'0 0.0
2017-Oct-10 04:29N 37°48' W 122°24'0 0.0
2017-Oct-10 03:59N 37°48' W 122°24'0 0.0
2017-Oct-10 03:29N 37°48' W 122°24'0 0.0
2017-Oct-10 02:59N 37°48' W 122°24'0 0.0
2017-Oct-10 02:26N 37°48' W 122°24'0 0.0
2017-Oct-10 01:55N 37°48' W 122°24'0 0.0
2017-Oct-10 01:28N 37°48' W 122°24'0 0.0
2017-Oct-10 00:58N 37°48' W 122°24'0 0.0
2017-Oct-10 00:28N 37°48' W 122°24'0 0.0
2017-Oct-10 00:01N 37°48' W 122°24'0 0.0
2017-Oct-09 23:30N 37°48' W 122°24'0 0.0
2017-Oct-09 23:00N 37°48' W 122°24'0 0.0
2017-Oct-09 22:30N 37°48' W 122°24'0 0.0
2017-Oct-09 22:00N 37°48' W 122°24'0 0.0
2017-Oct-09 21:29N 37°48' W 122°24'0 0.0
2017-Oct-09 20:59N 37°48' W 122°24'0 0.0
2017-Oct-09 20:29N 37°48' W 122°24'0 0.0
2017-Oct-09 19:59N 37°48' W 122°24'0 0.0
2017-Oct-09 19:29N 37°48' W 122°24'0 0.0
2017-Oct-09 18:58N 37°48' W 122°24'0 0.0
2017-Oct-09 18:28N 37°48' W 122°24'0 0.0
2017-Oct-09 17:58N 37°48' W 122°24'0 0.0
2017-Oct-09 17:28N 37°48' W 122°24'0 0.0
2017-Oct-09 16:57N 37°48' W 122°24'0 0.0
2017-Oct-09 16:30N 37°48' W 122°24'0 0.0
2017-Oct-09 16:00N 37°48' W 122°24'0 0.0
2017-Oct-09 15:30N 37°48' W 122°24'0 0.0
2017-Oct-09 15:00N 37°48' W 122°24'0 0.0
2017-Oct-09 14:29N 37°48' W 122°24'0 0.0
2017-Oct-09 14:00N 37°48' W 122°24'0 0.2
2017-Oct-09 13:31N 37°48' W 122°24'3 5.8
2017-Oct-09 13:00N 37°49' W 122°27'714.8
2017-Oct-09 12:31N 37°46' W 122°36'510.8
2017-Oct-09 12:00N 37°43' W 122°42'4 8.9
2017-Oct-09 11:31N 37°39' W 122°40'5 9.7
2017-Oct-09 11:00N 37°34' W 122°40'510.0
2017-Oct-09 10:31N 37°29' W 122°40'510.1
2017-Oct-09 10:01N 37°24' W 122°40'510.3
2017-Oct-09 09:31N 37°19' W 122°40'611.0
2017-Oct-09 09:00N 37°14' W 122°42'611.9
2017-Oct-09 08:30N 37°08' W 122°46'611.7
2017-Oct-09 08:01N 37°03' W 122°49'611.6
2017-Oct-09 07:30N 36°57' W 122°51'611.9
2017-Oct-09 07:01N 36°52' W 122°52'612.0
2017-Oct-09 06:31N 36°46' W 122°53'611.0
2017-Oct-09 06:01N 36°40' W 122°52'510.8
2017-Oct-09 05:30N 36°35' W 122°51'612.3
2017-Oct-09 05:00N 36°29' W 122°48'5345.8
2017-Oct-09 05:00N 36°24' W 122°48'2 3.9 310 / 301009.210.8 15.015.013.0
2017-Oct-09 04:31N 36°23' W 122°46'612.3
2017-Oct-09 04:00N 36°18' W 122°42'612.4
2017-Oct-09 03:30N 36°13' W 122°37'1212.2
2017-Oct-09 02:31N 36°03' W 122°29'213.1
2017-Oct-09 02:22N 36°01' W 122°28'411.0
2017-Oct-09 02:00N 35°58' W 122°25'611.8
2017-Oct-09 01:30N 35°53' W 122°21'611.9
2017-Oct-09 01:00N 35°48' W 122°17'612.1
2017-Oct-09 00:30N 35°43' W 122°13'713.4
2017-Oct-09 00:00N 35°37' W 122°08'612.1
2017-Oct-08 23:29N 35°32' W 122°04'612.2
2017-Oct-08 22:59N 35°27' W 121°60'612.4
2017-Oct-08 22:30N 35°22' W 121°56'611.4
2017-Oct-08 21:59N 35°17' W 121°52'710.9
2017-Oct-08 21:23N 35°12' W 121°47'512.3
2017-Oct-08 20:59N 35°08' W 121°44'612.1
2017-Oct-08 20:31N 35°03' W 121°40'712.1
2017-Oct-08 19:56N 34°57' W 121°35'611.8
2017-Oct-08 19:28N 34°53' W 121°31'511.6
2017-Oct-08 19:00N 34°48' W 121°28'7485.2
2017-Oct-08 19:00N 34°42' W 121°24'1 3.0 300 / 251010.210.8 15.014.115.0
2017-Oct-08 18:31N 34°43' W 121°24'612.0
2017-Oct-08 18:00N 34°38' W 121°20'612.0
2017-Oct-08 17:30N 34°33' W 121°16'612.1
2017-Oct-08 17:00N 34°28' W 121°12'611.8
2017-Oct-08 16:30N 34°23' W 121°08'612.0
2017-Oct-08 16:00N 34°18' W 121°04'610.9
2017-Oct-08 15:30N 34°14' W 120°60'610.4
2017-Oct-08 14:57N 34°09' W 120°56'510.6
2017-Oct-08 14:30N 34°05' W 120°53'713.0
2017-Oct-08 14:00N 34°00' W 120°48'118.7 310 / 371012.110.8 15.014.115.5
2017-Oct-08 13:57N 34°00' W 120°49'510.5
2017-Oct-08 13:30N 33°57' W 120°46'610.3
2017-Oct-08 12:54N 33°52' W 120°41'410.4
2017-Oct-08 12:30N 33°49' W 120°37'510.5
2017-Oct-08 12:00N 33°47' W 120°32'510.1
2017-Oct-08 11:30N 33°44' W 120°26'510.1
2017-Oct-08 11:00N 33°41' W 120°21'5 9.6
2017-Oct-08 10:30N 33°39' W 120°17'5 9.1
2017-Oct-08 10:00N 33°38' W 120°11'5 9.8
2017-Oct-08 09:30N 33°38' W 120°05'5 9.8
2017-Oct-08 09:00N 33°39' W 119°59'510.0
2017-Oct-08 08:30N 33°39' W 119°53'5 9.7
2017-Oct-08 08:00N 33°39' W 119°48'510.8
2017-Oct-08 07:30N 33°39' W 119°41'510.5
2017-Oct-08 07:00N 33°40' W 119°35'510.2
2017-Oct-08 06:31N 33°40' W 119°29'510.2
2017-Oct-08 06:00N 33°41' W 119°23'510.4
2017-Oct-08 05:30N 33°41' W 119°16'510.7
2017-Oct-08 05:00N 33°41' W 119°10'5 9.6
2017-Oct-08 04:30N 33°41' W 119°04'510.3
2017-Oct-08 04:00N 33°39' W 118°58'510.3
2017-Oct-08 03:30N 33°39' W 118°52'510.2
2017-Oct-08 03:01N 33°39' W 118°46'510.1
2017-Oct-08 02:30N 33°38' W 118°40'5 9.9
2017-Oct-08 02:00N 33°38' W 118°34'510.6
2017-Oct-08 01:30N 33°41' W 118°29'510.0
2017-Oct-08 01:00N 33°40' W 118°24'5 9.5
2017-Oct-08 00:30N 33°38' W 118°18'5 9.4
2017-Oct-08 00:00N 33°42' W 118°15'3 6.3
2017-Oct-07 23:31N 33°45' W 118°17'0 0.6
2017-Oct-07 23:00N 33°45' W 118°17'0 0.0
2017-Oct-07 22:27N 33°45' W 118°17'0 0.0
2017-Oct-07 21:56N 33°45' W 118°17'0 0.0
2017-Oct-07 21:20N 33°45' W 118°17'0 0.0
2017-Oct-07 20:50N 33°45' W 118°17'0 0.0
2017-Oct-07 20:26N 33°45' W 118°17'0 0.0
2017-Oct-07 19:56N 33°45' W 118°17'0 0.0
2017-Oct-07 19:25N 33°45' W 118°17'0 0.0
2017-Oct-07 18:49N 33°45' W 118°17'0 0.0
2017-Oct-07 18:25N 33°45' W 118°17'0 0.0
2017-Oct-07 17:49N 33°45' W 118°17'0 0.0
2017-Oct-07 17:30N 33°45' W 118°17'0 0.0
2017-Oct-07 17:00N 33°45' W 118°17'0 0.0
2017-Oct-07 16:27N 33°45' W 118°17'0 0.0
2017-Oct-07 16:00N 33°45' W 118°17'0 0.0
2017-Oct-07 15:30N 33°45' W 118°17'0 0.0
2017-Oct-07 14:59N 33°45' W 118°17'0 0.0
2017-Oct-07 14:29N 33°45' W 118°17'  
Track history (hours):
 
Tides and Currents Weather Stations Pressure Air Temp Water Temp Dewpoint Dewpoint Depression Visibility Wind Speed Wind Dir Waves Ship Positions

Ruby Princess

Last reported at 2017-Oct-17 14:00 UTC. Time now 2017-Oct-18 09:16 UTC.
Position N 20°36' W 105°30'.

Length 289 m; draft 8.6 m.

Type: Ship. MMSI: 310567000.

Wind from 040 at 12 knots

Barometer 1011.1 mb
Air temperature 28.5 ° C
Visibility: greater than 10.8 NM
Dewpoint 27.1 ° C
Water temperature 29.0 ° C

Date/timePositionNaut miles runAvg speedWind from/ knotsBaromVisibWave heightAir tempDewpointWater temp
2017-Oct-17 14:00N 20°36' W 105°30'7114.3 040 / 121011.110.8 28.527.129.0
2017-Oct-17 09:00N 21°00' W 106°42'8120.3 030 / 101011.110.8 28.527.129.0
2017-Oct-17 05:00N 21°36' W 108°00'6616.5 010 / 121012.710.8 29.026.930.0
2017-Oct-17 01:00N 22°00' W 109°06'14818.6 360 / 141012.210.8 29.027.629.0
2017-Oct-16 17:00N 23°06' W 111°30'6521.7 360 / 71014.510.8 27.525.427.0
2017-Oct-16 14:00N 23°54' W 112°18'13516.9 350 / 71013.210.8 25.023.525.0
2017-Oct-16 06:00N 25°42' W 113°48'6120.3 330 / 141014.610.8 24.021.823.0
2017-Oct-16 03:00N 26°30' W 114°30'7418.4 310 / 181014.110.8 22.019.720.0
2017-Oct-15 23:00N 27°30' W 115°18'11218.1 340 / 201017.610.8 21.518.320.0
2017-Oct-15 16:49N 29°10' W 116°16'617.4
2017-Oct-15 16:28N 29°15' W 116°18'3 5.8
2017-Oct-15 16:00N 29°18' W 116°18'961.4 020 / 101017.610.8 20.018.420.0
2017-Oct-15 15:51N 29°26' W 116°23'618.4
2017-Oct-15 15:30N 29°32' W 116°25'2818.7
2017-Oct-15 13:59N 29°59' W 116°37'919.1
2017-Oct-15 13:30N 30°07' W 116°40'1218.9
2017-Oct-15 12:53N 30°18' W 116°45'719.0
2017-Oct-15 12:30N 30°25' W 116°48'918.9
2017-Oct-15 12:00N 30°34' W 116°51'1619.0
2017-Oct-15 11:09N 30°49' W 116°58'318.9
2017-Oct-15 10:59N 30°52' W 116°59'918.7
2017-Oct-15 10:29N 31°01' W 117°03'1619.1
2017-Oct-15 09:39N 31°16' W 117°09'1519.3
2017-Oct-15 08:53N 31°30' W 117°15'719.3
2017-Oct-15 08:30N 31°37' W 117°18'1019.3
2017-Oct-15 08:01N 31°46' W 117°22'1019.3
2017-Oct-15 07:30N 31°55' W 117°26'918.8
2017-Oct-15 07:00N 32°04' W 117°30'918.5
2017-Oct-15 06:30N 32°12' W 117°33'918.1
2017-Oct-15 06:00N 32°21' W 117°37'11657.6
2017-Oct-15 06:00N 32°12' W 117°30'1939.1 030 / 51016.410.8 19.517.921.0
2017-Oct-15 05:31N 32°29' W 117°40'917.3
2017-Oct-15 05:01N 32°37' W 117°44'918.5
2017-Oct-15 04:30N 32°45' W 117°48'918.8
2017-Oct-15 04:00N 32°54' W 117°52'919.0
2017-Oct-15 03:31N 33°03' W 117°56'918.8
2017-Oct-15 03:00N 33°11' W 118°01'918.3
2017-Oct-15 02:31N 33°19' W 118°06'612.5
2017-Oct-15 02:01N 33°25' W 118°09'3164.0
2017-Oct-15 02:00N 33°24' W 118°06'817.5 310 / 151014.210.8 20.019.221.0
2017-Oct-15 01:30N 33°31' W 118°12'612.4
2017-Oct-15 01:00N 33°37' W 118°14'611.3
2017-Oct-15 00:31N 33°43' W 118°15'3 5.2
2017-Oct-15 00:01N 33°45' W 118°16'0 0.4
2017-Oct-14 23:30N 33°45' W 118°17'0 0.0
2017-Oct-14 23:00N 33°45' W 118°17'0 0.0
2017-Oct-14 22:29N 33°45' W 118°17'0 0.0
2017-Oct-14 21:59N 33°45' W 118°17'0 0.0
2017-Oct-14 21:29N 33°45' W 118°17'0 0.0
2017-Oct-14 20:59N 33°45' W 118°17'0 0.0
2017-Oct-14 20:28N 33°45' W 118°17'0 0.0
2017-Oct-14 19:58N 33°45' W 118°17'0 0.0
2017-Oct-14 19:28N 33°45' W 118°17'0 0.0
2017-Oct-14 18:58N 33°45' W 118°17'0 0.0
2017-Oct-14 18:28N 33°45' W 118°17'0 0.0
2017-Oct-14 17:57N 33°45' W 118°17'0 0.0
2017-Oct-14 17:30N 33°45' W 118°17'0 0.0
2017-Oct-14 17:00N 33°45' W 118°17'0 0.0
2017-Oct-14 16:30N 33°45' W 118°17'0 0.0
2017-Oct-14 15:57N 33°45' W 118°17'0 0.0
2017-Oct-14 15:30N 33°45' W 118°17'0 0.0
2017-Oct-14 14:54N 33°45' W 118°17'0 0.0
2017-Oct-14 14:27N 33°45' W 118°17'0 0.0
2017-Oct-14 14:00N 33°45' W 118°17'0 0.0
2017-Oct-14 13:29N 33°45' W 118°17'0 0.2
2017-Oct-14 13:00N 33°45' W 118°17'2 3.5
2017-Oct-14 12:30N 33°43' W 118°16'4 8.8
2017-Oct-14 12:00N 33°40' W 118°12'4 8.7
2017-Oct-14 11:30N 33°36' W 118°10'612.2
2017-Oct-14 11:00N 33°31' W 118°07'612.0
2017-Oct-14 10:30N 33°25' W 118°05'612.0
2017-Oct-14 10:00N 33°19' W 118°03'612.1
2017-Oct-14 09:30N 33°14' W 117°60'612.0
2017-Oct-14 09:00N 33°08' W 117°58'611.8
2017-Oct-14 08:30N 33°02' W 117°55'611.7
2017-Oct-14 08:00N 32°57' W 117°53'611.8
2017-Oct-14 07:30N 32°51' W 117°51'612.0
2017-Oct-14 07:00N 32°46' W 117°48'612.9
2017-Oct-14 06:30N 32°40' W 117°45'713.4
2017-Oct-14 06:00N 32°33' W 117°42'713.6
2017-Oct-14 05:30N 32°27' W 117°38'612.3
2017-Oct-14 05:00N 32°22' W 117°35'611.9
2017-Oct-14 04:30N 32°17' W 117°31'612.9
2017-Oct-14 04:00N 32°13' W 117°26'713.3
2017-Oct-14 03:30N 32°08' W 117°20'2214.4
2017-Oct-14 02:00N 31°54' W 117°00'19 1.2 290 / 101013.410.8 19.016.520.5
2017-Oct-13 09:48N 32°07' W 117°16'413.0
2017-Oct-13 09:30N 32°11' W 117°18'713.3
2017-Oct-13 09:00N 32°17' W 117°21'713.6
2017-Oct-13 08:30N 32°24' W 117°23'612.4
2017-Oct-13 08:00N 32°30' W 117°23'713.5
2017-Oct-13 07:30N 32°34' W 117°17'611.8
2017-Oct-13 07:00N 32°39' W 117°14'4 7.7
2017-Oct-13 06:30N 32°43' W 117°12'1 2.6
2017-Oct-13 06:00N 32°43' W 117°10'0 0.0
2017-Oct-13 05:27N 32°43' W 117°10'0 0.0
2017-Oct-13 04:59N 32°43' W 117°10'0 0.0
2017-Oct-13 04:29N 32°43' W 117°10'0 0.0
2017-Oct-13 03:56N 32°43' W 117°10'0 0.0
2017-Oct-13 03:26N 32°43' W 117°10'0 0.0
2017-Oct-13 02:58N 32°43' W 117°10'0 0.0
2017-Oct-13 02:16N 32°43' W 117°10'0 0.0
2017-Oct-13 01:52N 32°43' W 117°10'0 0.0
2017-Oct-13 01:13N 32°43' W 117°10'0 0.0
2017-Oct-13 00:58N 32°43' W 117°10'0 0.0
2017-Oct-13 00:21N 32°43' W 117°10'0 0.0
2017-Oct-12 23:57N 32°43' W 117°10'0 0.0
2017-Oct-12 23:21N 32°43' W 117°10'0 0.0
2017-Oct-12 22:57N 32°43' W 117°10'0 0.0
2017-Oct-12 22:27N 32°43' W 117°10'0 0.0
2017-Oct-12 21:56N 32°43' W 117°10'0 0.0
2017-Oct-12 21:20N 32°43' W 117°10'0 0.0
2017-Oct-12 20:59N 32°43' W 117°10'0 0.0
2017-Oct-12 20:20N 32°43' W 117°10'0 0.0
2017-Oct-12 19:58N 32°43' W 117°10'0 0.0
2017-Oct-12 19:28N 32°43' W 117°10'0 0.0
2017-Oct-12 18:46N 32°43' W 117°10'0 0.0
2017-Oct-12 18:19N 32°43' W 117°10'0 0.0
2017-Oct-12 17:54N 32°43' W 117°10'0 0.0
2017-Oct-12 17:30N 32°43' W 117°10'0 0.0
2017-Oct-12 17:00N 32°43' W 117°10'0 0.0
2017-Oct-12 16:30N 32°43' W 117°10'0 0.0
2017-Oct-12 16:00N 32°43' W 117°10'0 0.0
2017-Oct-12 15:29N 32°43' W 117°10'0 0.0
2017-Oct-12 14:47N 32°43' W 117°10'0 0.9
2017-Oct-12 14:30N 32°43' W 117°11'3 6.4
2017-Oct-12 14:00N 32°41' W 117°14'5 9.2
2017-Oct-12 13:30N 32°37' W 117°15'5 9.7
2017-Oct-12 13:00N 32°36' W 117°20'510.2
2017-Oct-12 12:30N 32°36' W 117°26'611.7
2017-Oct-12 12:00N 32°36' W 117°33'612.5
2017-Oct-12 11:30N 32°36' W 117°41'612.4
2017-Oct-12 11:00N 32°36' W 117°48'612.1
2017-Oct-12 10:30N 32°36' W 117°55'611.0
2017-Oct-12 10:00N 32°36' W 118°02'612.7
2017-Oct-12 09:30N 32°36' W 118°09'612.8
2017-Oct-12 09:00N 32°36' W 118°17'612.5
2017-Oct-12 08:30N 32°35' W 118°24'713.1
2017-Oct-12 08:00N 32°35' W 118°32'612.7
2017-Oct-12 07:30N 32°38' W 118°39'611.8
2017-Oct-12 07:00N 32°40' W 118°45'611.6
2017-Oct-12 06:30N 32°43' W 118°52'611.8
2017-Oct-12 06:00N 32°45' W 118°58'611.9
2017-Oct-12 05:30N 32°47' W 119°05'612.1
2017-Oct-12 05:00N 32°49' W 119°12'611.9
2017-Oct-12 04:29N 32°50' W 119°19'611.9
2017-Oct-12 04:00N 32°52' W 119°25'611.6
2017-Oct-12 03:30N 32°56' W 119°30'611.7
2017-Oct-12 03:00N 32°59' W 119°36'5500.2
2017-Oct-12 03:00N 33°00' W 119°42'2 3.8 270 / 101012.210.8 15.511.817.0
2017-Oct-12 02:29N 33°02' W 119°43'612.0
2017-Oct-12 01:57N 33°05' W 119°49'612.0
2017-Oct-12 01:30N 33°08' W 119°55'611.9
2017-Oct-12 01:00N 33°11' W 120°01'612.2
2017-Oct-12 00:30N 33°15' W 120°06'612.2
2017-Oct-12 00:00N 33°18' W 120°12'612.1
2017-Oct-11 23:30N 33°22' W 120°19'713.7
2017-Oct-11 22:58N 33°26' W 120°26'511.5
2017-Oct-11 22:30N 33°29' W 120°31'612.6
2017-Oct-11 22:00N 33°33' W 120°37'143625.9
2017-Oct-11 22:00N 33°24' W 120°24'2040.8 270 / 201013.010.8 16.512.016.0
2017-Oct-11 21:30N 33°36' W 120°43'3 6.8
2017-Oct-11 21:00N 33°39' W 120°42'4 8.0
2017-Oct-11 20:30N 33°42' W 120°38'4 7.9
2017-Oct-11 20:00N 33°44' W 120°34'4 7.4
2017-Oct-11 19:30N 33°48' W 120°35'510.7
2017-Oct-11 19:00N 33°52' W 120°40'510.6
2017-Oct-11 18:30N 33°56' W 120°44'510.5
2017-Oct-11 18:00N 34°00' W 120°47'510.5
2017-Oct-11 17:30N 34°05' W 120°50'510.3
2017-Oct-11 17:00N 34°10' W 120°53'70 9.9
2017-Oct-11 10:00N 35°12' W 121°30'87 8.6 310 / 101012.1 5.4 13.011.113.0
2017-Oct-10 23:51N 36°37' W 121°53'0 0.1
2017-Oct-10 23:27N 36°37' W 121°53'0 0.0
2017-Oct-10 23:00N 36°37' W 121°53'0 0.0
2017-Oct-10 22:27N 36°37' W 121°53'0 0.1
2017-Oct-10 21:57N 36°37' W 121°53'0 0.0
2017-Oct-10 21:26N 36°37' W 121°53'0 0.1
2017-Oct-10 20:56N 36°37' W 121°53'0 0.1
2017-Oct-10 20:26N 36°37' W 121°53'0 0.0
2017-Oct-10 19:59N 36°37' W 121°53'0 0.0
2017-Oct-10 19:25N 36°37' W 121°53'0 0.1
2017-Oct-10 18:55N 36°37' W 121°53'0 0.0
2017-Oct-10 18:28N 36°37' W 121°53'0 0.0
2017-Oct-10 17:55N 36°37' W 121°53'0 0.0
2017-Oct-10 17:19N 36°37' W 121°53'0 0.0
2017-Oct-10 16:57N 36°37' W 121°53'0 0.1
2017-Oct-10 16:30N 36°37' W 121°53'0 0.1
2017-Oct-10 15:57N 36°37' W 121°53'0 0.0
2017-Oct-10 15:30N 36°37' W 121°53'0 0.1
2017-Oct-10 14:57N 36°37' W 121°53'0 0.1
2017-Oct-10 14:00N 36°37' W 121°53'0 0.9
2017-Oct-10 13:30N 36°37' W 121°53'4 8.2
2017-Oct-10 12:59N 36°41' W 121°57'713.2
2017-Oct-10 12:29N 36°45' W 122°03'1815.7
2017-Oct-10 11:19N 36°58' W 122°19'515.6
2017-Oct-10 11:00N 37°01' W 122°23'815.9
2017-Oct-10 10:30N 37°07' W 122°30'815.7
2017-Oct-10 10:00N 37°13' W 122°37'815.0
2017-Oct-10 09:30N 37°18' W 122°43'510.2
2017-Oct-10 09:00N 37°23' W 122°44'510.3
2017-Oct-10 08:30N 37°28' W 122°44'510.2
2017-Oct-10 08:00N 37°34' W 122°44'510.7
2017-Oct-10 07:30N 37°39' W 122°44'714.4
2017-Oct-10 07:00N 37°45' W 122°39'816.1
2017-Oct-10 06:30N 37°49' W 122°30'510.0
2017-Oct-10 06:00N 37°48' W 122°24'0 0.0
2017-Oct-10 05:30N 37°48' W 122°24'0 0.0
2017-Oct-10 05:00N 37°48' W 122°24'0 0.0
2017-Oct-10 04:29N 37°48' W 122°24'0 0.0
2017-Oct-10 03:59N 37°48' W 122°24'0 0.0
2017-Oct-10 03:29N 37°48' W 122°24'0 0.0
2017-Oct-10 02:59N 37°48' W 122°24'0 0.0
2017-Oct-10 02:26N 37°48' W 122°24'0 0.0
2017-Oct-10 01:55N 37°48' W 122°24'0 0.0
2017-Oct-10 01:28N 37°48' W 122°24'0 0.0
2017-Oct-10 00:58N 37°48' W 122°24'0 0.0
2017-Oct-10 00:28N 37°48' W 122°24'0 0.0
2017-Oct-10 00:01N 37°48' W 122°24'0 0.0
2017-Oct-09 23:30N 37°48' W 122°24'0 0.0
2017-Oct-09 23:00N 37°48' W 122°24'0 0.0
2017-Oct-09 22:30N 37°48' W 122°24'0 0.0
2017-Oct-09 22:00N 37°48' W 122°24'0 0.0
2017-Oct-09 21:29N 37°48' W 122°24'0 0.0
2017-Oct-09 20:59N 37°48' W 122°24'0 0.0
2017-Oct-09 20:29N 37°48' W 122°24'0 0.0
2017-Oct-09 19:59N 37°48' W 122°24'0 0.0
2017-Oct-09 19:29N 37°48' W 122°24'0 0.0
2017-Oct-09 18:58N 37°48' W 122°24'0 0.0
2017-Oct-09 18:28N 37°48' W 122°24'0 0.0
2017-Oct-09 17:58N 37°48' W 122°24'0 0.0
2017-Oct-09 17:28N 37°48' W 122°24'0 0.0
2017-Oct-09 16:57N 37°48' W 122°24'0 0.0
2017-Oct-09 16:30N 37°48' W 122°24'0 0.0
2017-Oct-09 16:00N 37°48' W 122°24'0 0.0
2017-Oct-09 15:30N 37°48' W 122°24'0 0.0
2017-Oct-09 15:00N 37°48' W 122°24'0 0.0
2017-Oct-09 14:29N 37°48' W 122°24'0 0.0
2017-Oct-09 14:00N 37°48' W 122°24'0 0.2
2017-Oct-09 13:31N 37°48' W 122°24'3 5.8
2017-Oct-09 13:00N 37°49' W 122°27'714.8
2017-Oct-09 12:31N 37°46' W 122°36'510.8
2017-Oct-09 12:00N 37°43' W 122°42'4 8.9
2017-Oct-09 11:31N 37°39' W 122°40'5 9.7
2017-Oct-09 11:00N 37°34' W 122°40'510.0
2017-Oct-09 10:31N 37°29' W 122°40'510.1
2017-Oct-09 10:01N 37°24' W 122°40'510.3
2017-Oct-09 09:31N 37°19' W 122°40'611.0
2017-Oct-09 09:00N 37°14' W 122°42'611.9
2017-Oct-09 08:30N 37°08' W 122°46'611.7
2017-Oct-09 08:01N 37°03' W 122°49'611.6
2017-Oct-09 07:30N 36°57' W 122°51'611.9
2017-Oct-09 07:01N 36°52' W 122°52'612.0
2017-Oct-09 06:31N 36°46' W 122°53'611.0
2017-Oct-09 06:01N 36°40' W 122°52'510.8
2017-Oct-09 05:30N 36°35' W 122°51'612.3
2017-Oct-09 05:00N 36°29' W 122°48'5345.8
2017-Oct-09 05:00N 36°24' W 122°48'2 3.9 310 / 301009.210.8 15.015.013.0
2017-Oct-09 04:31N 36°23' W 122°46'612.3
2017-Oct-09 04:00N 36°18' W 122°42'612.4
2017-Oct-09 03:30N 36°13' W 122°37'1212.2
2017-Oct-09 02:31N 36°03' W 122°29'213.1
2017-Oct-09 02:22N 36°01' W 122°28'411.0
2017-Oct-09 02:00N 35°58' W 122°25'611.8
2017-Oct-09 01:30N 35°53' W 122°21'611.9
2017-Oct-09 01:00N 35°48' W 122°17'612.1
2017-Oct-09 00:30N 35°43' W 122°13'713.4
2017-Oct-09 00:00N 35°37' W 122°08'612.1
2017-Oct-08 23:29N 35°32' W 122°04'612.2
2017-Oct-08 22:59N 35°27' W 121°60'612.4
2017-Oct-08 22:30N 35°22' W 121°56'611.4
2017-Oct-08 21:59N 35°17' W 121°52'710.9
2017-Oct-08 21:23N 35°12' W 121°47'512.3
2017-Oct-08 20:59N 35°08' W 121°44'612.1
2017-Oct-08 20:31N 35°03' W 121°40'712.1
2017-Oct-08 19:56N 34°57' W 121°35'611.8
2017-Oct-08 19:28N 34°53' W 121°31'511.6
2017-Oct-08 19:00N 34°48' W 121°28'7485.2
2017-Oct-08 19:00N 34°42' W 121°24'1 3.0 300 / 251010.210.8 15.014.115.0
2017-Oct-08 18:31N 34°43' W 121°24'612.0
2017-Oct-08 18:00N 34°38' W 121°20'612.0
2017-Oct-08 17:30N 34°33' W 121°16'612.1
2017-Oct-08 17:00N 34°28' W 121°12'611.8
2017-Oct-08 16:30N 34°23' W 121°08'612.0
2017-Oct-08 16:00N 34°18' W 121°04'610.9
2017-Oct-08 15:30N 34°14' W 120°60'610.4
2017-Oct-08 14:57N 34°09' W 120°56'510.6
2017-Oct-08 14:30N 34°05' W 120°53'713.0
2017-Oct-08 14:00N 34°00' W 120°48'118.7 310 / 371012.110.8 15.014.115.5
2017-Oct-08 13:57N 34°00' W 120°49'510.5
2017-Oct-08 13:30N 33°57' W 120°46'610.3
2017-Oct-08 12:54N 33°52' W 120°41'410.4
2017-Oct-08 12:30N 33°49' W 120°37'510.5
2017-Oct-08 12:00N 33°47' W 120°32'510.1
2017-Oct-08 11:30N 33°44' W 120°26'510.1
2017-Oct-08 11:00N 33°41' W 120°21'5 9.6
2017-Oct-08 10:30N 33°39' W 120°17'5 9.1
2017-Oct-08 10:00N 33°38' W 120°11'5 9.8
2017-Oct-08 09:30N 33°38' W 120°05'5 9.8
2017-Oct-08 09:00N 33°39' W 119°59'510.0
2017-Oct-08 08:30N 33°39' W 119°53'5 9.7
2017-Oct-08 08:00N 33°39' W 119°48'510.8
2017-Oct-08 07:30N 33°39' W 119°41'510.5
2017-Oct-08 07:00N 33°40' W 119°35'510.2
2017-Oct-08 06:31N 33°40' W 119°29'510.2
2017-Oct-08 06:00N 33°41' W 119°23'510.4
2017-Oct-08 05:30N 33°41' W 119°16'510.7
2017-Oct-08 05:00N 33°41' W 119°10'5 9.6
2017-Oct-08 04:30N 33°41' W 119°04'510.3
2017-Oct-08 04:00N 33°39' W 118°58'510.3
2017-Oct-08 03:30N 33°39' W 118°52'510.2
2017-Oct-08 03:01N 33°39' W 118°46'510.1
2017-Oct-08 02:30N 33°38' W 118°40'5 9.9
2017-Oct-08 02:00N 33°38' W 118°34'510.6
2017-Oct-08 01:30N 33°41' W 118°29'510.0
2017-Oct-08 01:00N 33°40' W 118°24'5 9.5
2017-Oct-08 00:30N 33°38' W 118°18'5 9.4
2017-Oct-08 00:00N 33°42' W 118°15'3 6.3
2017-Oct-07 23:31N 33°45' W 118°17'0 0.6
2017-Oct-07 23:00N 33°45' W 118°17'0 0.0
2017-Oct-07 22:27N 33°45' W 118°17'0 0.0
2017-Oct-07 21:56N 33°45' W 118°17'0 0.0
2017-Oct-07 21:20N 33°45' W 118°17'0 0.0
2017-Oct-07 20:50N 33°45' W 118°17'0 0.0
2017-Oct-07 20:26N 33°45' W 118°17'0 0.0
2017-Oct-07 19:56N 33°45' W 118°17'0 0.0
2017-Oct-07 19:25N 33°45' W 118°17'0 0.0
2017-Oct-07 18:49N 33°45' W 118°17'0 0.0
2017-Oct-07 18:25N 33°45' W 118°17'0 0.0
2017-Oct-07 17:49N 33°45' W 118°17'0 0.0
2017-Oct-07 17:30N 33°45' W 118°17'0 0.0
2017-Oct-07 17:00N 33°45' W 118°17'0 0.0
2017-Oct-07 16:27N 33°45' W 118°17'0 0.0
2017-Oct-07 16:00N 33°45' W 118°17'0 0.0
2017-Oct-07 15:30N 33°45' W 118°17'0 0.0
2017-Oct-07 14:59N 33°45' W 118°17'0 0.0
2017-Oct-07 14:29N 33°45' W 118°17'  

Dump ship's entire track history